sensor_id;sensor_type;location;lat;lon;timestamp;temperature;humidity
66835;HTU21D;53743;51.100;5.874;2022-08-19T00:00:20;21.40;80.46
66835;HTU21D;53743;51.100;5.874;2022-08-19T00:01:22;21.39;80.40
66835;HTU21D;53743;51.100;5.874;2022-08-19T00:02:23;21.40;80.38
66835;HTU21D;53743;51.100;5.874;2022-08-19T00:03:24;21.39;80.44
66835;HTU21D;53743;51.100;5.874;2022-08-19T00:04:29;21.38;80.46
66835;HTU21D;53743;51.100;5.874;2022-08-19T00:05:33;21.37;80.43
66835;HTU21D;53743;51.100;5.874;2022-08-19T00:06:38;21.35;80.48
66835;HTU21D;53743;51.100;5.874;2022-08-19T00:07:42;21.34;80.45
66835;HTU21D;53743;51.100;5.874;2022-08-19T00:08:43;21.32;80.46
66835;HTU21D;53743;51.100;5.874;2022-08-19T00:09:45;21.30;80.61
66835;HTU21D;53743;51.100;5.874;2022-08-19T00:10:45;21.28;80.85
66835;HTU21D;53743;51.100;5.874;2022-08-19T00:11:48;21.25;80.96
66835;HTU21D;53743;51.100;5.874;2022-08-19T00:12:49;21.22;81.09
66835;HTU21D;53743;51.100;5.874;2022-08-19T00:13:51;21.19;81.28
66835;HTU21D;53743;51.100;5.874;2022-08-19T00:14:52;21.17;81.41
66835;HTU21D;53743;51.100;5.874;2022-08-19T00:15:55;21.14;81.55
66835;HTU21D;53743;51.100;5.874;2022-08-19T00:16:56;21.11;81.59
66835;HTU21D;53743;51.100;5.874;2022-08-19T00:17:57;21.10;81.72
66835;HTU21D;53743;51.100;5.874;2022-08-19T00:18:58;21.09;81.82
66835;HTU21D;53743;51.100;5.874;2022-08-19T00:19:59;21.08;81.94
66835;HTU21D;53743;51.100;5.874;2022-08-19T00:21:00;21.07;81.71
66835;HTU21D;53743;51.100;5.874;2022-08-19T00:22:02;21.06;81.56
66835;HTU21D;53743;51.100;5.874;2022-08-19T00:23:03;21.06;81.58
66835;HTU21D;53743;51.100;5.874;2022-08-19T00:24:06;21.05;81.59
66835;HTU21D;53743;51.100;5.874;2022-08-19T00:25:11;21.05;81.57
66835;HTU21D;53743;51.100;5.874;2022-08-19T00:26:12;21.04;81.61
66835;HTU21D;53743;51.100;5.874;2022-08-19T00:27:14;21.03;81.77
66835;HTU21D;53743;51.100;5.874;2022-08-19T00:28:15;21.01;81.87
66835;HTU21D;53743;51.100;5.874;2022-08-19T00:29:19;21.00;81.92
66835;HTU21D;53743;51.100;5.874;2022-08-19T00:30:21;20.96;82.14
66835;HTU21D;53743;51.100;5.874;2022-08-19T00:31:21;20.94;82.23
66835;HTU21D;53743;51.100;5.874;2022-08-19T00:32:22;20.93;82.36
66835;HTU21D;53743;51.100;5.874;2022-08-19T00:33:23;20.91;82.49
66835;HTU21D;53743;51.100;5.874;2022-08-19T00:34:24;20.89;82.62
66835;HTU21D;53743;51.100;5.874;2022-08-19T00:35:28;20.88;82.47
66835;HTU21D;53743;51.100;5.874;2022-08-19T00:36:30;20.87;82.49
66835;HTU21D;53743;51.100;5.874;2022-08-19T00:37:32;20.85;82.42
66835;HTU21D;53743;51.100;5.874;2022-08-19T00:38:34;20.84;82.41
66835;HTU21D;53743;51.100;5.874;2022-08-19T00:39:36;20.83;82.36
66835;HTU21D;53743;51.100;5.874;2022-08-19T00:40:38;20.81;82.36
66835;HTU21D;53743;51.100;5.874;2022-08-19T00:41:39;20.81;82.38
66835;HTU21D;53743;51.100;5.874;2022-08-19T00:42:41;20.80;82.35
66835;HTU21D;53743;51.100;5.874;2022-08-19T00:43:42;20.79;82.36
66835;HTU21D;53743;51.100;5.874;2022-08-19T00:44:42;20.78;82.40
66835;HTU21D;53743;51.100;5.874;2022-08-19T00:45:43;20.77;82.39
66835;HTU21D;53743;51.100;5.874;2022-08-19T00:46:46;20.76;82.44
66835;HTU21D;53743;51.100;5.874;2022-08-19T00:47:48;20.74;82.50
66835;HTU21D;53743;51.100;5.874;2022-08-19T00:48:49;20.74;82.57
66835;HTU21D;53743;51.100;5.874;2022-08-19T00:49:53;20.73;82.49
66835;HTU21D;53743;51.100;5.874;2022-08-19T00:50:57;20.71;82.54
66835;HTU21D;53743;51.100;5.874;2022-08-19T00:52:08;20.70;82.55
66835;HTU21D;53743;51.100;5.874;2022-08-19T00:53:15;20.70;82.51
66835;HTU21D;53743;51.100;5.874;2022-08-19T00:54:19;20.70;82.51
66835;HTU21D;53743;51.100;5.874;2022-08-19T00:55:24;20.68;82.54
66835;HTU21D;53743;51.100;5.874;2022-08-19T00:56:29;20.68;82.63
66835;HTU21D;53743;51.100;5.874;2022-08-19T00:57:35;20.65;82.78
66835;HTU21D;53743;51.100;5.874;2022-08-19T00:58:40;20.64;82.80
66835;HTU21D;53743;51.100;5.874;2022-08-19T00:59:44;20.61;82.85
66835;HTU21D;53743;51.100;5.874;2022-08-19T01:00:48;20.60;83.00
66835;HTU21D;53743;51.100;5.874;2022-08-19T01:01:49;20.59;83.00
66835;HTU21D;53743;51.100;5.874;2022-08-19T01:02:49;20.56;83.06
66835;HTU21D;53743;51.100;5.874;2022-08-19T01:03:52;20.55;83.04
66835;HTU21D;53743;51.100;5.874;2022-08-19T01:04:53;20.51;83.14
66835;HTU21D;53743;51.100;5.874;2022-08-19T01:05:55;20.48;83.26
66835;HTU21D;53743;51.100;5.874;2022-08-19T01:06:57;20.46;83.39
66835;HTU21D;53743;51.100;5.874;2022-08-19T01:08:03;20.45;83.46
66835;HTU21D;53743;51.100;5.874;2022-08-19T01:09:05;20.44;83.52
66835;HTU21D;53743;51.100;5.874;2022-08-19T01:10:10;20.43;83.49
66835;HTU21D;53743;51.100;5.874;2022-08-19T01:11:14;20.41;83.56
66835;HTU21D;53743;51.100;5.874;2022-08-19T01:12:16;20.42;83.49
66835;HTU21D;53743;51.100;5.874;2022-08-19T01:13:23;20.42;83.54
66835;HTU21D;53743;51.100;5.874;2022-08-19T01:14:26;20.40;83.65
66835;HTU21D;53743;51.100;5.874;2022-08-19T01:15:31;20.40;83.65
66835;HTU21D;53743;51.100;5.874;2022-08-19T01:16:38;20.39;83.68
66835;HTU21D;53743;51.100;5.874;2022-08-19T01:17:41;20.35;83.74
66835;HTU21D;53743;51.100;5.874;2022-08-19T01:18:43;20.34;83.74
66835;HTU21D;53743;51.100;5.874;2022-08-19T01:19:45;20.34;83.84
66835;HTU21D;53743;51.100;5.874;2022-08-19T01:20:48;20.32;83.75
66835;HTU21D;53743;51.100;5.874;2022-08-19T01:22:59;20.31;83.78
66835;HTU21D;53743;51.100;5.874;2022-08-19T01:23:28;20.29;83.75
66835;HTU21D;53743;51.100;5.874;2022-08-19T01:24:43;20.28;83.81
66835;HTU21D;53743;51.100;5.874;2022-08-19T01:25:50;20.28;83.82
66835;HTU21D;53743;51.100;5.874;2022-08-19T01:26:52;20.27;83.78
66835;HTU21D;53743;51.100;5.874;2022-08-19T01:27:53;20.26;83.81
66835;HTU21D;53743;51.100;5.874;2022-08-19T01:28:57;20.25;83.92
66835;HTU21D;53743;51.100;5.874;2022-08-19T01:29:59;20.24;84.11
66835;HTU21D;53743;51.100;5.874;2022-08-19T01:31:00;20.24;84.26
66835;HTU21D;53743;51.100;5.874;2022-08-19T01:32:01;20.22;84.29
66835;HTU21D;53743;51.100;5.874;2022-08-19T01:33:02;20.22;84.30
66835;HTU21D;53743;51.100;5.874;2022-08-19T01:34:06;20.20;84.34
66835;HTU21D;53743;51.100;5.874;2022-08-19T01:35:10;20.20;84.33
66835;HTU21D;53743;51.100;5.874;2022-08-19T01:36:23;20.18;84.33
66835;HTU21D;53743;51.100;5.874;2022-08-19T01:37:29;20.17;84.35
66835;HTU21D;53743;51.100;5.874;2022-08-19T01:38:30;20.16;84.23
66835;HTU21D;53743;51.100;5.874;2022-08-19T01:39:31;20.15;84.29
66835;HTU21D;53743;51.100;5.874;2022-08-19T01:40:34;20.14;84.24
66835;HTU21D;53743;51.100;5.874;2022-08-19T01:41:38;20.15;84.32
66835;HTU21D;53743;51.100;5.874;2022-08-19T01:42:39;20.12;84.49
66835;HTU21D;53743;51.100;5.874;2022-08-19T01:43:40;20.10;84.51
66835;HTU21D;53743;51.100;5.874;2022-08-19T01:44:41;20.11;84.58
66835;HTU21D;53743;51.100;5.874;2022-08-19T01:45:42;20.09;84.55
66835;HTU21D;53743;51.100;5.874;2022-08-19T01:46:43;20.06;84.52
66835;HTU21D;53743;51.100;5.874;2022-08-19T01:47:44;20.07;84.46
66835;HTU21D;53743;51.100;5.874;2022-08-19T01:48:46;20.07;84.49
66835;HTU21D;53743;51.100;5.874;2022-08-19T01:49:47;20.03;84.36
66835;HTU21D;53743;51.100;5.874;2022-08-19T01:50:48;20.04;84.46
66835;HTU21D;53743;51.100;5.874;2022-08-19T01:51:52;20.03;84.35
66835;HTU21D;53743;51.100;5.874;2022-08-19T01:52:54;20.03;84.40
66835;HTU21D;53743;51.100;5.874;2022-08-19T01:53:54;20.02;84.50
66835;HTU21D;53743;51.100;5.874;2022-08-19T01:54:55;19.99;84.58
66835;HTU21D;53743;51.100;5.874;2022-08-19T01:55:56;19.97;84.79
66835;HTU21D;53743;51.100;5.874;2022-08-19T01:57:03;19.95;85.02
66835;HTU21D;53743;51.100;5.874;2022-08-19T01:58:25;19.92;85.25
66835;HTU21D;53743;51.100;5.874;2022-08-19T01:59:33;19.91;85.46
66835;HTU21D;53743;51.100;5.874;2022-08-19T02:00:36;19.87;85.64
66835;HTU21D;53743;51.100;5.874;2022-08-19T02:01:37;19.87;85.81
66835;HTU21D;53743;51.100;5.874;2022-08-19T02:02:38;19.82;86.06
66835;HTU21D;53743;51.100;5.874;2022-08-19T02:03:40;19.80;86.30
66835;HTU21D;53743;51.100;5.874;2022-08-19T02:04:40;19.79;86.45
66835;HTU21D;53743;51.100;5.874;2022-08-19T02:05:42;19.77;86.60
66835;HTU21D;53743;51.100;5.874;2022-08-19T02:06:44;19.77;86.70
66835;HTU21D;53743;51.100;5.874;2022-08-19T02:07:44;19.76;86.93
66835;HTU21D;53743;51.100;5.874;2022-08-19T02:08:45;19.73;87.12
66835;HTU21D;53743;51.100;5.874;2022-08-19T02:09:46;19.74;87.24
66835;HTU21D;53743;51.100;5.874;2022-08-19T02:10:48;19.73;87.54
66835;HTU21D;53743;51.100;5.874;2022-08-19T02:11:50;19.71;87.54
66835;HTU21D;53743;51.100;5.874;2022-08-19T02:12:51;19.69;87.76
66835;HTU21D;53743;51.100;5.874;2022-08-19T02:13:53;19.68;87.96
66835;HTU21D;53743;51.100;5.874;2022-08-19T02:14:54;19.67;88.12
66835;HTU21D;53743;51.100;5.874;2022-08-19T02:15:55;19.68;88.31
66835;HTU21D;53743;51.100;5.874;2022-08-19T02:16:56;19.67;88.71
66835;HTU21D;53743;51.100;5.874;2022-08-19T02:17:56;19.66;88.85
66835;HTU21D;53743;51.100;5.874;2022-08-19T02:18:57;19.66;88.93
66835;HTU21D;53743;51.100;5.874;2022-08-19T02:20:00;19.66;89.06
66835;HTU21D;53743;51.100;5.874;2022-08-19T02:21:01;19.68;89.10
66835;HTU21D;53743;51.100;5.874;2022-08-19T02:22:02;19.68;89.06
66835;HTU21D;53743;51.100;5.874;2022-08-19T02:23:04;19.66;89.27
66835;HTU21D;53743;51.100;5.874;2022-08-19T02:24:06;19.66;89.26
66835;HTU21D;53743;51.100;5.874;2022-08-19T02:25:08;19.67;89.41
66835;HTU21D;53743;51.100;5.874;2022-08-19T02:26:11;19.66;89.41
66835;HTU21D;53743;51.100;5.874;2022-08-19T02:27:12;19.66;89.61
66835;HTU21D;53743;51.100;5.874;2022-08-19T02:28:13;19.66;89.59
66835;HTU21D;53743;51.100;5.874;2022-08-19T02:29:14;19.68;89.56
66835;HTU21D;53743;51.100;5.874;2022-08-19T02:30:16;19.68;89.56
66835;HTU21D;53743;51.100;5.874;2022-08-19T02:31:20;19.65;89.60
66835;HTU21D;53743;51.100;5.874;2022-08-19T02:32:22;19.65;89.66
66835;HTU21D;53743;51.100;5.874;2022-08-19T02:33:23;19.65;89.73
66835;HTU21D;53743;51.100;5.874;2022-08-19T02:34:24;19.63;89.85
66835;HTU21D;53743;51.100;5.874;2022-08-19T02:35:25;19.65;89.92
66835;HTU21D;53743;51.100;5.874;2022-08-19T02:36:26;19.63;89.93
66835;HTU21D;53743;51.100;5.874;2022-08-19T02:37:28;19.66;89.98
66835;HTU21D;53743;51.100;5.874;2022-08-19T02:38:47;19.66;89.98
66835;HTU21D;53743;51.100;5.874;2022-08-19T02:39:48;19.67;90.12
66835;HTU21D;53743;51.100;5.874;2022-08-19T02:40:51;19.67;90.04
66835;HTU21D;53743;51.100;5.874;2022-08-19T02:41:54;19.65;90.08
66835;HTU21D;53743;51.100;5.874;2022-08-19T02:42:55;19.62;90.09
66835;HTU21D;53743;51.100;5.874;2022-08-19T02:43:58;19.62;90.17
66835;HTU21D;53743;51.100;5.874;2022-08-19T02:45:00;19.63;90.08
66835;HTU21D;53743;51.100;5.874;2022-08-19T02:46:11;19.62;90.00
66835;HTU21D;53743;51.100;5.874;2022-08-19T02:47:18;19.62;90.06
66835;HTU21D;53743;51.100;5.874;2022-08-19T02:48:20;19.63;90.05
66835;HTU21D;53743;51.100;5.874;2022-08-19T02:49:23;19.63;90.05
66835;HTU21D;53743;51.100;5.874;2022-08-19T02:50:24;19.66;90.09
66835;HTU21D;53743;51.100;5.874;2022-08-19T02:51:28;19.67;89.97
66835;HTU21D;53743;51.100;5.874;2022-08-19T02:52:37;19.66;89.97
66835;HTU21D;53743;51.100;5.874;2022-08-19T02:53:38;19.65;89.95
66835;HTU21D;53743;51.100;5.874;2022-08-19T02:54:38;19.66;90.05
66835;HTU21D;53743;51.100;5.874;2022-08-19T02:55:46;19.65;90.11
66835;HTU21D;53743;51.100;5.874;2022-08-19T02:56:47;19.63;90.08
66835;HTU21D;53743;51.100;5.874;2022-08-19T02:57:48;19.66;90.12
66835;HTU21D;53743;51.100;5.874;2022-08-19T02:58:49;19.66;90.12
66835;HTU21D;53743;51.100;5.874;2022-08-19T02:59:50;19.66;90.09
66835;HTU21D;53743;51.100;5.874;2022-08-19T03:00:54;19.66;89.95
66835;HTU21D;53743;51.100;5.874;2022-08-19T03:01:56;19.65;89.86
66835;HTU21D;53743;51.100;5.874;2022-08-19T03:02:57;19.66;89.95
66835;HTU21D;53743;51.100;5.874;2022-08-19T03:04:01;19.66;89.84
66835;HTU21D;53743;51.100;5.874;2022-08-19T03:05:06;19.68;89.70
66835;HTU21D;53743;51.100;5.874;2022-08-19T03:06:13;19.69;89.57
66835;HTU21D;53743;51.100;5.874;2022-08-19T03:07:16;19.68;89.49
66835;HTU21D;53743;51.100;5.874;2022-08-19T03:08:17;19.68;89.46
66835;HTU21D;53743;51.100;5.874;2022-08-19T03:09:19;19.66;89.47
66835;HTU21D;53743;51.100;5.874;2022-08-19T03:10:20;19.66;89.54
66835;HTU21D;53743;51.100;5.874;2022-08-19T03:11:30;19.65;89.55
66835;HTU21D;53743;51.100;5.874;2022-08-19T03:12:35;19.61;89.70
66835;HTU21D;53743;51.100;5.874;2022-08-19T03:13:37;19.60;89.70
66835;HTU21D;53743;51.100;5.874;2022-08-19T03:14:38;19.58;89.61
66835;HTU21D;53743;51.100;5.874;2022-08-19T03:15:44;19.58;89.79
66835;HTU21D;53743;51.100;5.874;2022-08-19T03:16:50;19.56;89.92
66835;HTU21D;53743;51.100;5.874;2022-08-19T03:17:52;19.56;89.74
66835;HTU21D;53743;51.100;5.874;2022-08-19T03:18:55;19.56;89.51
66835;HTU21D;53743;51.100;5.874;2022-08-19T03:20:01;19.58;89.44
66835;HTU21D;53743;51.100;5.874;2022-08-19T03:21:03;19.58;89.46
66835;HTU21D;53743;51.100;5.874;2022-08-19T03:22:04;19.58;89.41
66835;HTU21D;53743;51.100;5.874;2022-08-19T03:23:05;19.58;89.26
66835;HTU21D;53743;51.100;5.874;2022-08-19T03:24:08;19.58;89.28
66835;HTU21D;53743;51.100;5.874;2022-08-19T03:25:09;19.60;89.23
66835;HTU21D;53743;51.100;5.874;2022-08-19T03:26:10;19.60;89.12
66835;HTU21D;53743;51.100;5.874;2022-08-19T03:27:10;19.60;89.20
66835;HTU21D;53743;51.100;5.874;2022-08-19T03:28:14;19.61;89.11
66835;HTU21D;53743;51.100;5.874;2022-08-19T03:29:16;19.61;89.20
66835;HTU21D;53743;51.100;5.874;2022-08-19T03:30:17;19.61;89.12
66835;HTU21D;53743;51.100;5.874;2022-08-19T03:31:20;19.61;89.07
66835;HTU21D;53743;51.100;5.874;2022-08-19T03:32:25;19.61;89.15
66835;HTU21D;53743;51.100;5.874;2022-08-19T03:33:27;19.59;89.06
66835;HTU21D;53743;51.100;5.874;2022-08-19T03:34:31;19.60;88.95
66835;HTU21D;53743;51.100;5.874;2022-08-19T03:35:34;19.59;88.83
66835;HTU21D;53743;51.100;5.874;2022-08-19T03:36:39;19.59;88.88
66835;HTU21D;53743;51.100;5.874;2022-08-19T03:37:40;19.58;88.77
66835;HTU21D;53743;51.100;5.874;2022-08-19T03:38:45;19.58;88.73
66835;HTU21D;53743;51.100;5.874;2022-08-19T03:39:48;19.57;88.79
66835;HTU21D;53743;51.100;5.874;2022-08-19T03:40:49;19.57;88.76
66835;HTU21D;53743;51.100;5.874;2022-08-19T03:41:51;19.57;88.85
66835;HTU21D;53743;51.100;5.874;2022-08-19T03:42:53;19.56;88.78
66835;HTU21D;53743;51.100;5.874;2022-08-19T03:43:54;19.56;88.77
66835;HTU21D;53743;51.100;5.874;2022-08-19T03:44:55;19.55;88.81
66835;HTU21D;53743;51.100;5.874;2022-08-19T03:46:03;19.54;88.94
66835;HTU21D;53743;51.100;5.874;2022-08-19T03:47:06;19.54;89.00
66835;HTU21D;53743;51.100;5.874;2022-08-19T03:48:07;19.52;88.98
66835;HTU21D;53743;51.100;5.874;2022-08-19T03:49:08;19.50;89.07
66835;HTU21D;53743;51.100;5.874;2022-08-19T03:50:09;19.47;89.18
66835;HTU21D;53743;51.100;5.874;2022-08-19T03:51:22;19.45;89.28
66835;HTU21D;53743;51.100;5.874;2022-08-19T03:52:25;19.43;89.44
66835;HTU21D;53743;51.100;5.874;2022-08-19T03:53:28;19.42;89.56
66835;HTU21D;53743;51.100;5.874;2022-08-19T03:54:30;19.41;89.76
66835;HTU21D;53743;51.100;5.874;2022-08-19T03:55:30;19.38;89.86
66835;HTU21D;53743;51.100;5.874;2022-08-19T03:56:33;19.37;90.01
66835;HTU21D;53743;51.100;5.874;2022-08-19T03:57:35;19.36;90.09
66835;HTU21D;53743;51.100;5.874;2022-08-19T03:58:36;19.36;89.96
66835;HTU21D;53743;51.100;5.874;2022-08-19T03:59:38;19.33;89.93
66835;HTU21D;53743;51.100;5.874;2022-08-19T04:00:42;19.31;90.16
66835;HTU21D;53743;51.100;5.874;2022-08-19T04:01:43;19.28;90.23
66835;HTU21D;53743;51.100;5.874;2022-08-19T04:02:44;19.28;90.37
66835;HTU21D;53743;51.100;5.874;2022-08-19T04:03:45;19.25;90.31
66835;HTU21D;53743;51.100;5.874;2022-08-19T04:04:46;19.25;90.29
66835;HTU21D;53743;51.100;5.874;2022-08-19T04:05:47;19.24;90.37
66835;HTU21D;53743;51.100;5.874;2022-08-19T04:06:48;19.25;90.32
66835;HTU21D;53743;51.100;5.874;2022-08-19T04:07:51;19.26;90.34
66835;HTU21D;53743;51.100;5.874;2022-08-19T04:08:54;19.28;90.31
66835;HTU21D;53743;51.100;5.874;2022-08-19T04:09:55;19.29;90.11
66835;HTU21D;53743;51.100;5.874;2022-08-19T04:10:56;19.31;90.02
66835;HTU21D;53743;51.100;5.874;2022-08-19T04:11:58;19.31;89.90
66835;HTU21D;53743;51.100;5.874;2022-08-19T04:12:58;19.32;89.89
66835;HTU21D;53743;51.100;5.874;2022-08-19T04:14:00;19.31;89.80
66835;HTU21D;53743;51.100;5.874;2022-08-19T04:15:01;19.32;89.78
66835;HTU21D;53743;51.100;5.874;2022-08-19T04:16:02;19.33;89.69
66835;HTU21D;53743;51.100;5.874;2022-08-19T04:17:04;19.33;89.66
66835;HTU21D;53743;51.100;5.874;2022-08-19T04:18:05;19.35;89.68
66835;HTU21D;53743;51.100;5.874;2022-08-19T04:19:07;19.31;89.57
66835;HTU21D;53743;51.100;5.874;2022-08-19T04:20:08;19.32;89.38
66835;HTU21D;53743;51.100;5.874;2022-08-19T04:21:19;19.32;89.41
66835;HTU21D;53743;51.100;5.874;2022-08-19T04:22:21;19.33;89.28
66835;HTU21D;53743;51.100;5.874;2022-08-19T04:23:22;19.32;89.42
66835;HTU21D;53743;51.100;5.874;2022-08-19T04:24:24;19.32;89.39
66835;HTU21D;53743;51.100;5.874;2022-08-19T04:25:25;19.30;89.38
66835;HTU21D;53743;51.100;5.874;2022-08-19T04:26:28;19.31;89.41
66835;HTU21D;53743;51.100;5.874;2022-08-19T04:27:34;19.31;89.37
66835;HTU21D;53743;51.100;5.874;2022-08-19T04:28:35;19.30;89.34
66835;HTU21D;53743;51.100;5.874;2022-08-19T04:29:37;19.30;89.50
66835;HTU21D;53743;51.100;5.874;2022-08-19T04:30:46;19.27;89.43
66835;HTU21D;53743;51.100;5.874;2022-08-19T04:31:49;19.26;89.64
66835;HTU21D;53743;51.100;5.874;2022-08-19T04:32:50;19.24;89.83
66835;HTU21D;53743;51.100;5.874;2022-08-19T04:33:50;19.22;89.92
66835;HTU21D;53743;51.100;5.874;2022-08-19T04:34:52;19.22;90.10
66835;HTU21D;53743;51.100;5.874;2022-08-19T04:35:53;19.23;90.28
66835;HTU21D;53743;51.100;5.874;2022-08-19T04:36:57;19.25;90.33
66835;HTU21D;53743;51.100;5.874;2022-08-19T04:37:59;19.28;90.21
66835;HTU21D;53743;51.100;5.874;2022-08-19T04:39:03;19.31;90.06
66835;HTU21D;53743;51.100;5.874;2022-08-19T04:40:06;19.35;90.01
66835;HTU21D;53743;51.100;5.874;2022-08-19T04:41:26;19.36;89.85
66835;HTU21D;53743;51.100;5.874;2022-08-19T04:42:59;19.41;89.61
66835;HTU21D;53743;51.100;5.874;2022-08-19T04:44:01;19.43;89.53
66835;HTU21D;53743;51.100;5.874;2022-08-19T04:45:04;19.47;89.39
66835;HTU21D;53743;51.100;5.874;2022-08-19T04:46:08;19.48;89.18
66835;HTU21D;53743;51.100;5.874;2022-08-19T04:47:11;19.51;89.05
66835;HTU21D;53743;51.100;5.874;2022-08-19T04:48:12;19.54;88.92
66835;HTU21D;53743;51.100;5.874;2022-08-19T04:49:14;19.56;88.87
66835;HTU21D;53743;51.100;5.874;2022-08-19T04:50:17;19.58;88.71
66835;HTU21D;53743;51.100;5.874;2022-08-19T04:51:19;19.60;88.73
66835;HTU21D;53743;51.100;5.874;2022-08-19T04:52:20;19.60;88.62
66835;HTU21D;53743;51.100;5.874;2022-08-19T04:53:21;19.59;88.63
66835;HTU21D;53743;51.100;5.874;2022-08-19T04:54:24;19.58;88.74
66835;HTU21D;53743;51.100;5.874;2022-08-19T04:55:25;19.57;88.84
66835;HTU21D;53743;51.100;5.874;2022-08-19T04:56:27;19.55;88.64
66835;HTU21D;53743;51.100;5.874;2022-08-19T04:57:28;19.57;88.61
66835;HTU21D;53743;51.100;5.874;2022-08-19T04:58:28;19.57;88.57
66835;HTU21D;53743;51.100;5.874;2022-08-19T04:59:29;19.56;88.59
66835;HTU21D;53743;51.100;5.874;2022-08-19T05:00:30;19.56;88.64
66835;HTU21D;53743;51.100;5.874;2022-08-19T05:01:32;19.57;88.55
66835;HTU21D;53743;51.100;5.874;2022-08-19T05:02:33;19.57;88.58
66835;HTU21D;53743;51.100;5.874;2022-08-19T05:03:34;19.59;88.70
66835;HTU21D;53743;51.100;5.874;2022-08-19T05:04:36;19.59;88.73
66835;HTU21D;53743;51.100;5.874;2022-08-19T05:05:40;19.61;88.69
66835;HTU21D;53743;51.100;5.874;2022-08-19T05:06:41;19.62;88.67
66835;HTU21D;53743;51.100;5.874;2022-08-19T05:07:43;19.62;88.65
66835;HTU21D;53743;51.100;5.874;2022-08-19T05:08:44;19.67;88.64
66835;HTU21D;53743;51.100;5.874;2022-08-19T05:09:45;19.68;88.57
66835;HTU21D;53743;51.100;5.874;2022-08-19T05:10:48;19.72;88.44
66835;HTU21D;53743;51.100;5.874;2022-08-19T05:11:50;19.75;88.38
66835;HTU21D;53743;51.100;5.874;2022-08-19T05:12:53;19.79;88.05
66835;HTU21D;53743;51.100;5.874;2022-08-19T05:13:54;19.82;87.87
66835;HTU21D;53743;51.100;5.874;2022-08-19T05:14:57;19.86;87.81
66835;HTU21D;53743;51.100;5.874;2022-08-19T05:15:59;19.88;87.59
66835;HTU21D;53743;51.100;5.874;2022-08-19T05:17:00;19.91;87.48
66835;HTU21D;53743;51.100;5.874;2022-08-19T05:18:01;19.94;87.38
66835;HTU21D;53743;51.100;5.874;2022-08-19T05:19:20;19.94;87.29
66835;HTU21D;53743;51.100;5.874;2022-08-19T05:20:40;19.96;87.29
66835;HTU21D;53743;51.100;5.874;2022-08-19T05:22:00;19.97;87.27
66835;HTU21D;53743;51.100;5.874;2022-08-19T05:23:20;19.94;87.06
66835;HTU21D;53743;51.100;5.874;2022-08-19T05:24:22;19.95;86.90
66835;HTU21D;53743;51.100;5.874;2022-08-19T05:25:23;19.98;86.72
66835;HTU21D;53743;51.100;5.874;2022-08-19T05:26:25;19.99;86.67
66835;HTU21D;53743;51.100;5.874;2022-08-19T05:27:26;20.02;86.61
66835;HTU21D;53743;51.100;5.874;2022-08-19T05:28:27;20.04;86.43
66835;HTU21D;53743;51.100;5.874;2022-08-19T05:29:29;20.06;86.40
66835;HTU21D;53743;51.100;5.874;2022-08-19T05:30:31;20.12;86.36
66835;HTU21D;53743;51.100;5.874;2022-08-19T05:31:35;20.15;86.20
66835;HTU21D;53743;51.100;5.874;2022-08-19T05:32:37;20.19;86.13
66835;HTU21D;53743;51.100;5.874;2022-08-19T05:33:39;20.22;86.02
66835;HTU21D;53743;51.100;5.874;2022-08-19T05:34:40;20.22;86.07
66835;HTU21D;53743;51.100;5.874;2022-08-19T05:35:40;20.25;85.96
66835;HTU21D;53743;51.100;5.874;2022-08-19T05:36:43;20.25;86.03
66835;HTU21D;53743;51.100;5.874;2022-08-19T05:37:45;20.28;85.90
66835;HTU21D;53743;51.100;5.874;2022-08-19T05:38:46;20.30;85.84
66835;HTU21D;53743;51.100;5.874;2022-08-19T05:39:48;20.32;85.58
66835;HTU21D;53743;51.100;5.874;2022-08-19T05:40:49;20.35;85.55
66835;HTU21D;53743;51.100;5.874;2022-08-19T05:41:53;20.41;85.53
66835;HTU21D;53743;51.100;5.874;2022-08-19T05:42:57;20.44;85.58
66835;HTU21D;53743;51.100;5.874;2022-08-19T05:44:02;20.45;85.56
66835;HTU21D;53743;51.100;5.874;2022-08-19T05:45:07;20.46;85.42
66835;HTU21D;53743;51.100;5.874;2022-08-19T05:46:17;20.47;85.41
66835;HTU21D;53743;51.100;5.874;2022-08-19T05:47:20;20.47;85.32
66835;HTU21D;53743;51.100;5.874;2022-08-19T05:48:20;20.45;85.64
66835;HTU21D;53743;51.100;5.874;2022-08-19T05:49:23;20.44;85.53
66835;HTU21D;53743;51.100;5.874;2022-08-19T05:50:25;20.42;85.64
66835;HTU21D;53743;51.100;5.874;2022-08-19T05:51:26;20.42;85.75
66835;HTU21D;53743;51.100;5.874;2022-08-19T05:52:27;20.47;85.62
66835;HTU21D;53743;51.100;5.874;2022-08-19T05:53:28;20.53;85.44
66835;HTU21D;53743;51.100;5.874;2022-08-19T05:54:29;20.59;85.48
66835;HTU21D;53743;51.100;5.874;2022-08-19T05:55:31;20.66;85.26
66835;HTU21D;53743;51.100;5.874;2022-08-19T05:56:32;20.75;85.08
66835;HTU21D;53743;51.100;5.874;2022-08-19T05:57:35;20.81;84.97
66835;HTU21D;53743;51.100;5.874;2022-08-19T05:58:37;20.90;84.74
66835;HTU21D;53743;51.100;5.874;2022-08-19T05:59:39;20.96;84.63
66835;HTU21D;53743;51.100;5.874;2022-08-19T06:00:39;21.00;84.52
66835;HTU21D;53743;51.100;5.874;2022-08-19T06:01:45;21.06;84.39
66835;HTU21D;53743;51.100;5.874;2022-08-19T06:02:46;21.13;84.17
66835;HTU21D;53743;51.100;5.874;2022-08-19T06:03:47;21.21;83.97
66835;HTU21D;53743;51.100;5.874;2022-08-19T06:04:48;21.28;83.85
66835;HTU21D;53743;51.100;5.874;2022-08-19T06:05:49;21.33;83.90
66835;HTU21D;53743;51.100;5.874;2022-08-19T06:06:52;21.50;83.73
66835;HTU21D;53743;51.100;5.874;2022-08-19T06:07:54;21.70;83.18
66835;HTU21D;53743;51.100;5.874;2022-08-19T06:08:54;21.95;82.28
66835;HTU21D;53743;51.100;5.874;2022-08-19T06:09:55;22.17;81.36
66835;HTU21D;53743;51.100;5.874;2022-08-19T06:10:56;22.42;80.56
66835;HTU21D;53743;51.100;5.874;2022-08-19T06:11:58;22.67;79.82
66835;HTU21D;53743;51.100;5.874;2022-08-19T06:13:00;22.95;78.79
66835;HTU21D;53743;51.100;5.874;2022-08-19T06:14:10;23.24;76.86
66835;HTU21D;53743;51.100;5.874;2022-08-19T06:15:15;23.52;76.16
66835;HTU21D;53743;51.100;5.874;2022-08-19T06:16:22;23.80;76.00
66835;HTU21D;53743;51.100;5.874;2022-08-19T06:17:22;24.12;74.54
66835;HTU21D;53743;51.100;5.874;2022-08-19T06:18:25;24.43;72.69
66835;HTU21D;53743;51.100;5.874;2022-08-19T06:19:30;24.75;72.15
66835;HTU21D;53743;51.100;5.874;2022-08-19T06:20:31;25.04;68.34
66835;HTU21D;53743;51.100;5.874;2022-08-19T06:21:35;25.34;69.62
66835;HTU21D;53743;51.100;5.874;2022-08-19T06:22:43;25.60;68.20
66835;HTU21D;53743;51.100;5.874;2022-08-19T06:23:46;25.74;66.97
66835;HTU21D;53743;51.100;5.874;2022-08-19T06:24:47;25.80;66.37
66835;HTU21D;53743;51.100;5.874;2022-08-19T06:25:48;25.87;66.07
66835;HTU21D;53743;51.100;5.874;2022-08-19T06:26:51;25.94;65.61
66835;HTU21D;53743;51.100;5.874;2022-08-19T06:27:53;25.98;65.56
66835;HTU21D;53743;51.100;5.874;2022-08-19T06:28:54;26.07;64.86
66835;HTU21D;53743;51.100;5.874;2022-08-19T06:29:54;26.16;64.48
66835;HTU21D;53743;51.100;5.874;2022-08-19T06:30:55;26.26;63.06